createdAt,value
2023-12-23T00:01:47.593Z,86.17
2023-12-23T00:04:14.371Z,85.88
2023-12-23T00:06:41.061Z,86.15
2023-12-23T00:09:07.758Z,85.93
2023-12-23T00:11:34.470Z,85.84
2023-12-23T00:14:01.495Z,86.23
2023-12-23T00:16:29.314Z,86.16
2023-12-23T00:18:56.326Z,86.12
2023-12-23T00:21:23.114Z,86.54
2023-12-23T00:23:49.889Z,86.38
2023-12-23T00:26:16.651Z,86.42
2023-12-23T00:28:44.917Z,86.37
2023-12-23T00:31:12.061Z,86.24
2023-12-23T00:33:38.839Z,86.24
2023-12-23T00:36:07.238Z,86.66
2023-12-23T00:38:35.135Z,86.55
2023-12-23T00:41:01.944Z,86.25
2023-12-23T00:43:28.721Z,86.60
2023-12-23T00:45:56.339Z,86.12
2023-12-23T00:48:23.644Z,86.58
2023-12-23T00:50:50.515Z,86.00
2023-12-23T00:53:17.356Z,86.59
2023-12-23T00:55:44.165Z,86.33
2023-12-23T00:58:10.969Z,86.57
2023-12-23T01:00:39.835Z,86.28
2023-12-23T01:03:06.537Z,86.41
2023-12-23T01:05:33.324Z,86.47
2023-12-23T01:08:00.357Z,86.48
2023-12-23T01:10:28.114Z,87.06
2023-12-23T01:12:55.134Z,86.48
2023-12-23T01:15:21.956Z,86.88
2023-12-23T01:17:49.255Z,86.87
2023-12-23T01:20:16.249Z,86.81
2023-12-23T01:22:43.052Z,86.53
2023-12-23T01:25:28.451Z,86.88
2023-12-23T01:27:55.303Z,86.70
2023-12-23T01:30:24.106Z,86.54
2023-12-23T01:32:51.043Z,86.20
2023-12-23T01:35:17.897Z,86.71
2023-12-23T01:37:44.782Z,86.77
2023-12-23T01:40:11.804Z,86.55
2023-12-23T01:42:38.858Z,86.53
2023-12-23T01:45:06.065Z,87.00
2023-12-23T01:47:35.492Z,86.94
2023-12-23T01:50:04.784Z,86.69
2023-12-23T01:52:33.565Z,86.80
2023-12-23T01:55:00.386Z,86.99
2023-12-23T01:57:27.067Z,86.88
2023-12-23T01:59:53.913Z,86.85
2023-12-23T02:02:21.960Z,86.85
2023-12-23T02:04:48.761Z,86.92
2023-12-23T02:07:15.869Z,87.44
2023-12-23T02:09:44.942Z,86.94
2023-12-23T02:12:25.826Z,87.12
2023-12-23T02:15:10.110Z,87.34
2023-12-23T02:17:39.015Z,87.37
2023-12-23T02:20:06.224Z,86.87
2023-12-23T02:22:33.126Z,87.09
2023-12-23T02:25:00.036Z,87.36
2023-12-23T02:27:51.226Z,87.15
2023-12-23T02:30:18.319Z,86.90
2023-12-23T02:32:45.853Z,87.13
2023-12-23T02:35:13.686Z,86.74
2023-12-23T02:37:42.123Z,86.90
2023-12-23T02:40:09.549Z,87.03
2023-12-23T02:42:36.246Z,87.08
2023-12-23T02:45:04.529Z,87.42
2023-12-23T02:47:31.166Z,87.04
2023-12-23T02:49:57.911Z,87.22
2023-12-23T02:52:24.639Z,87.21
2023-12-23T02:54:51.417Z,87.21
2023-12-23T02:57:18.070Z,87.46
2023-12-23T03:00:04.014Z,86.85
2023-12-23T03:02:30.897Z,87.34
2023-12-23T03:04:58.786Z,87.39
2023-12-23T03:07:25.963Z,87.03
2023-12-23T03:09:52.596Z,87.17
2023-12-23T03:12:20.447Z,87.36
2023-12-23T03:14:47.262Z,87.37
2023-12-23T03:17:14.171Z,87.23
2023-12-23T03:19:44.414Z,87.73
2023-12-23T03:22:11.243Z,88.16
2023-12-23T03:24:37.983Z,88.04
2023-12-23T03:27:05.057Z,88.26
2023-12-23T03:29:31.755Z,87.69
2023-12-23T03:31:58.583Z,88.04
2023-12-23T03:34:25.379Z,87.63
2023-12-23T03:36:52.731Z,87.63
2023-12-23T03:39:19.395Z,87.63
2023-12-23T03:41:46.158Z,87.56
2023-12-23T03:44:13.118Z,87.91
2023-12-23T03:46:40.500Z,88.02
2023-12-23T03:49:07.274Z,87.85
2023-12-23T03:51:34.058Z,87.46
2023-12-23T03:54:01.006Z,87.44
2023-12-23T03:56:27.739Z,87.95
2023-12-23T03:58:54.961Z,87.72
2023-12-23T04:01:22.126Z,87.83
2023-12-23T04:03:49.239Z,87.88
2023-12-23T04:06:16.245Z,87.88
2023-12-23T04:08:43.326Z,87.37
2023-12-23T04:11:10.230Z,87.41
2023-12-23T04:13:38.442Z,87.64
2023-12-23T04:16:05.908Z,87.82
2023-12-23T04:18:32.942Z,87.41
2023-12-23T04:20:59.808Z,87.24
2023-12-23T04:23:27.018Z,87.20
2023-12-23T04:25:53.945Z,87.31
2023-12-23T04:28:26.109Z,87.51
2023-12-23T04:30:58.104Z,87.15
2023-12-23T04:33:25.608Z,87.28
2023-12-23T04:35:54.719Z,87.47
2023-12-23T04:38:21.607Z,87.42
2023-12-23T04:40:49.002Z,86.80
2023-12-23T04:43:15.880Z,87.32
2023-12-23T04:45:42.642Z,87.63
2023-12-23T04:48:09.616Z,87.09
2023-12-23T04:50:36.446Z,87.54
2023-12-23T04:53:04.219Z,87.76
2023-12-23T04:55:31.032Z,87.64
2023-12-23T04:57:57.811Z,87.76
2023-12-23T05:00:24.903Z,87.55
2023-12-23T05:02:52.004Z,87.32
2023-12-23T05:05:19.100Z,87.23
2023-12-23T05:07:46.355Z,87.12
2023-12-23T05:10:13.951Z,87.08
2023-12-23T05:12:40.886Z,87.47
2023-12-23T05:15:08.139Z,87.54
2023-12-23T05:17:35.102Z,87.18
2023-12-23T05:20:02.873Z,87.25
2023-12-23T05:22:29.865Z,87.13
2023-12-23T05:24:56.982Z,86.99
2023-12-23T05:27:24.489Z,87.29
2023-12-23T05:29:51.416Z,87.36
2023-12-23T05:32:18.345Z,87.22
2023-12-23T05:34:45.084Z,86.80
2023-12-23T05:37:11.964Z,87.07
2023-12-23T05:39:39.584Z,86.81
2023-12-23T05:42:06.371Z,86.78
2023-12-23T05:44:33.314Z,86.38
2023-12-23T05:47:00.987Z,86.60
2023-12-23T05:49:27.638Z,86.64
2023-12-23T05:51:54.625Z,86.35
2023-12-23T05:54:21.373Z,86.24
2023-12-23T05:56:48.142Z,86.50
2023-12-23T05:59:14.954Z,86.01
2023-12-23T06:01:41.766Z,85.92
2023-12-23T06:04:08.454Z,85.64
2023-12-23T06:06:35.697Z,85.96
2023-12-23T06:09:02.397Z,86.11
2023-12-23T06:11:30.128Z,85.51
2023-12-23T06:13:57.283Z,85.75
2023-12-23T06:16:24.170Z,85.89
2023-12-23T06:18:51.144Z,85.71
2023-12-23T06:21:18.366Z,85.19
2023-12-23T06:23:45.152Z,85.52
2023-12-23T06:26:12.456Z,84.97
2023-12-23T06:28:39.266Z,84.92
2023-12-23T06:31:06.069Z,85.19
2023-12-23T06:33:32.765Z,84.74
2023-12-23T06:35:59.600Z,84.62
2023-12-23T06:38:26.355Z,84.85
2023-12-23T06:40:53.102Z,84.96
2023-12-23T06:43:44.626Z,83.92
2023-12-23T06:46:06.662Z,84.53
2023-12-23T06:48:34.738Z,84.29
2023-12-23T06:51:02.097Z,84.69
2023-12-23T06:53:28.836Z,84.15
2023-12-23T06:55:55.680Z,83.98
2023-12-23T06:58:27.827Z,83.87
2023-12-23T07:00:54.609Z,84.15
2023-12-23T07:03:22.133Z,84.13
2023-12-23T07:05:49.059Z,84.15
2023-12-23T07:08:16.734Z,83.76
2023-12-23T07:10:43.970Z,84.04
2023-12-23T07:13:10.731Z,83.70
2023-12-23T07:15:37.548Z,83.12
2023-12-23T07:18:04.584Z,87.17
2023-12-23T07:20:31.527Z,90.85
2023-12-23T07:22:58.417Z,92.46
2023-12-23T07:25:25.406Z,95.63
2023-12-23T07:27:52.199Z,96.99
2023-12-23T07:30:21.814Z,98.41
2023-12-23T07:32:48.973Z,99.74
2023-12-23T07:35:17.202Z,100.00
2023-12-23T07:37:45.587Z,100.00
2023-12-23T07:40:13.496Z,100.00
2023-12-23T07:42:40.390Z,100.00
2023-12-23T07:45:08.091Z,100.00
2023-12-23T07:47:35.602Z,100.00
2023-12-23T07:50:02.663Z,100.00
2023-12-23T07:52:29.451Z,100.00
2023-12-23T07:54:57.418Z,100.00
2023-12-23T07:57:24.155Z,100.00
2023-12-23T07:59:50.909Z,100.00
2023-12-23T08:02:17.780Z,100.00
2023-12-23T08:04:44.555Z,100.00
2023-12-23T08:07:11.414Z,100.00
2023-12-23T08:09:38.186Z,100.00
2023-12-23T08:12:05.332Z,100.00
2023-12-23T08:14:32.181Z,100.00
2023-12-23T08:16:59.079Z,100.00
2023-12-23T08:19:26.169Z,100.00
2023-12-23T08:21:53.242Z,100.00
2023-12-23T08:24:19.976Z,100.00
2023-12-23T08:26:46.897Z,100.00
2023-12-23T08:29:13.630Z,100.00
2023-12-23T08:31:46.961Z,100.00
2023-12-23T08:34:14.294Z,100.00
2023-12-23T08:36:41.038Z,100.00
2023-12-23T08:39:08.156Z,100.00
2023-12-23T08:41:37.888Z,100.00
2023-12-23T08:44:04.948Z,100.00
2023-12-23T08:46:31.782Z,100.00
2023-12-23T08:49:00.675Z,100.00
2023-12-23T08:51:30.833Z,100.00
2023-12-23T08:53:57.608Z,100.00
2023-12-23T08:56:24.567Z,100.00
2023-12-23T08:58:51.421Z,100.00
2023-12-23T09:01:18.517Z,100.00
2023-12-23T09:03:45.520Z,100.00
2023-12-23T09:06:13.832Z,100.00
2023-12-23T09:08:40.880Z,100.00
2023-12-23T09:11:08.538Z,100.00
2023-12-23T09:13:35.362Z,100.00
2023-12-23T09:16:04.211Z,100.00
2023-12-23T09:18:31.070Z,100.00
2023-12-23T09:20:57.762Z,100.00
2023-12-23T09:23:24.488Z,100.00
2023-12-23T09:25:53.033Z,100.00
2023-12-23T09:28:19.816Z,100.00
2023-12-23T09:30:46.535Z,100.00
2023-12-23T09:33:13.625Z,100.00
2023-12-23T09:35:40.390Z,100.00
2023-12-23T09:38:07.274Z,100.00
2023-12-23T09:40:34.151Z,100.00
2023-12-23T09:43:01.015Z,100.00
2023-12-23T09:45:28.041Z,100.00
2023-12-23T09:47:55.301Z,100.00
2023-12-23T09:50:23.501Z,100.00
2023-12-23T09:52:53.890Z,100.00
2023-12-23T09:55:20.949Z,100.00
2023-12-23T09:57:48.399Z,100.00
2023-12-23T10:00:15.761Z,100.00
2023-12-23T10:02:42.445Z,100.00
2023-12-23T10:05:09.623Z,100.00
2023-12-23T10:07:36.471Z,100.00
2023-12-23T10:10:03.395Z,100.00
2023-12-23T10:12:30.077Z,100.00
2023-12-23T10:14:56.837Z,100.00
2023-12-23T10:17:23.673Z,100.00
2023-12-23T10:19:51.123Z,100.00
2023-12-23T10:22:18.018Z,100.00
2023-12-23T10:24:44.795Z,100.00
2023-12-23T10:27:12.323Z,100.00
2023-12-23T10:29:40.989Z,100.00
2023-12-23T10:32:09.799Z,100.00
2023-12-23T10:34:59.924Z,100.00
2023-12-23T10:37:27.403Z,100.00
2023-12-23T10:40:03.696Z,100.00
2023-12-23T10:42:31.733Z,100.00
2023-12-23T10:44:59.448Z,100.00
2023-12-23T10:47:28.267Z,100.00
2023-12-23T10:49:57.837Z,100.00
2023-12-23T10:52:24.761Z,100.00
2023-12-23T10:54:52.742Z,100.00
2023-12-23T10:57:22.945Z,100.00
2023-12-23T10:59:50.162Z,100.00
2023-12-23T11:02:20.626Z,100.00
2023-12-23T11:04:49.746Z,100.00
2023-12-23T11:07:18.360Z,100.00
2023-12-23T11:09:46.950Z,100.00
2023-12-23T11:12:13.727Z,100.00
2023-12-23T11:14:41.036Z,100.00
2023-12-23T11:17:26.876Z,100.00
2023-12-23T11:19:57.750Z,100.00
2023-12-23T11:22:26.481Z,100.00
2023-12-23T11:24:53.329Z,100.00
2023-12-23T11:27:37.557Z,100.00
2023-12-23T11:30:11.778Z,100.00
2023-12-23T11:32:41.579Z,100.00
2023-12-23T11:35:15.597Z,100.00
2023-12-23T11:37:57.174Z,100.00
2023-12-23T11:40:24.125Z,100.00
2023-12-23T11:42:51.296Z,100.00
2023-12-23T11:45:18.517Z,100.00
2023-12-23T11:47:45.438Z,100.00
2023-12-23T11:50:13.523Z,100.00
2023-12-23T11:52:41.839Z,100.00
2023-12-23T11:55:09.089Z,100.00
2023-12-23T11:57:36.797Z,100.00
2023-12-23T12:00:05.715Z,100.00
2023-12-23T12:02:33.686Z,100.00
2023-12-23T12:05:00.672Z,100.00
2023-12-23T12:07:27.758Z,100.00
2023-12-23T12:09:55.192Z,100.00
2023-12-23T12:12:22.243Z,100.00
2023-12-23T12:14:49.390Z,100.00
2023-12-23T12:17:16.186Z,100.00
2023-12-23T12:19:43.062Z,100.00
2023-12-23T12:22:10.422Z,100.00
2023-12-23T12:24:38.856Z,100.00
2023-12-23T12:27:05.734Z,100.00
2023-12-23T12:29:33.075Z,100.00
2023-12-23T12:32:00.394Z,100.00
2023-12-23T12:34:29.742Z,100.00
2023-12-23T12:36:58.497Z,100.00
2023-12-23T12:39:27.193Z,100.00
2023-12-23T12:41:54.397Z,100.00
2023-12-23T12:44:22.036Z,100.00
2023-12-23T12:46:58.149Z,100.00
2023-12-23T12:49:25.426Z,100.00
2023-12-23T12:51:53.227Z,100.00
2023-12-23T12:54:22.500Z,100.00
2023-12-23T12:56:49.400Z,100.00
2023-12-23T12:59:16.306Z,100.00
2023-12-23T13:01:43.536Z,100.00
2023-12-23T13:04:10.536Z,100.00
2023-12-23T13:06:37.433Z,100.00
2023-12-23T13:09:05.602Z,100.00
2023-12-23T13:11:34.201Z,100.00
2023-12-23T13:14:01.714Z,100.00
2023-12-23T13:16:29.328Z,100.00
2023-12-23T13:19:00.383Z,100.00
2023-12-23T13:21:28.967Z,100.00
2023-12-23T13:23:55.947Z,100.00
2023-12-23T13:26:22.871Z,100.00
2023-12-23T13:28:52.273Z,100.00
2023-12-23T13:31:20.919Z,100.00
2023-12-23T13:33:47.734Z,100.00
2023-12-23T13:36:14.542Z,100.00
2023-12-23T13:38:44.727Z,100.00
2023-12-23T13:41:14.515Z,100.00
2023-12-23T13:43:41.382Z,100.00
2023-12-23T13:46:08.500Z,100.00
2023-12-23T13:48:35.863Z,100.00
2023-12-23T13:51:03.832Z,100.00
2023-12-23T13:53:30.767Z,100.00
2023-12-23T13:55:57.506Z,100.00
2023-12-23T13:58:24.397Z,100.00
2023-12-23T14:00:54.277Z,100.00
2023-12-23T14:03:21.272Z,100.00
2023-12-23T14:05:48.137Z,100.00
2023-12-23T14:08:15.065Z,100.00
2023-12-23T14:10:46.311Z,100.00
2023-12-23T14:13:14.311Z,100.00
2023-12-23T14:15:41.040Z,100.00
2023-12-23T14:18:08.721Z,100.00
2023-12-23T14:20:35.599Z,100.00
2023-12-23T14:23:02.608Z,100.00
2023-12-23T14:25:29.385Z,100.00
2023-12-23T14:27:56.126Z,100.00
2023-12-23T14:30:22.915Z,100.00
2023-12-23T14:32:49.976Z,100.00
2023-12-23T14:35:16.909Z,100.00
2023-12-23T14:37:48.766Z,100.00
2023-12-23T14:40:19.476Z,100.00
2023-12-23T14:42:46.325Z,100.00
2023-12-23T14:45:13.333Z,100.00
2023-12-23T14:47:40.649Z,100.00
2023-12-23T14:50:08.085Z,100.00
2023-12-23T14:52:35.006Z,100.00
2023-12-23T14:55:01.764Z,100.00
2023-12-23T14:57:28.688Z,100.00
2023-12-23T14:59:55.415Z,100.00
2023-12-23T15:02:23.110Z,100.00
2023-12-23T15:04:49.971Z,100.00
2023-12-23T15:07:16.948Z,100.00
2023-12-23T15:09:43.740Z,100.00
2023-12-23T15:12:18.553Z,100.00
2023-12-23T15:14:46.599Z,100.00
2023-12-23T15:17:13.567Z,100.00
2023-12-23T15:19:40.413Z,100.00
2023-12-23T15:22:07.193Z,100.00
2023-12-23T15:24:40.236Z,100.00
2023-12-23T15:27:07.280Z,100.00
2023-12-23T15:29:34.055Z,100.00
2023-12-23T15:32:00.985Z,100.00
2023-12-23T15:34:27.756Z,100.00
2023-12-23T15:36:57.102Z,100.00
2023-12-23T15:39:24.629Z,100.00
2023-12-23T15:41:51.643Z,100.00
2023-12-23T15:44:18.460Z,100.00
2023-12-23T15:46:45.208Z,100.00
2023-12-23T15:49:12.689Z,100.00
2023-12-23T15:51:39.542Z,100.00
2023-12-23T15:54:24.983Z,100.00
2023-12-23T15:56:53.880Z,100.00
2023-12-23T15:59:20.623Z,100.00
2023-12-23T16:01:47.751Z,100.00
2023-12-23T16:04:14.806Z,100.00
2023-12-23T16:06:41.492Z,100.00
2023-12-23T16:09:08.372Z,100.00
2023-12-23T16:11:37.964Z,100.00
2023-12-23T16:14:05.507Z,100.00
2023-12-23T16:16:32.505Z,100.00
2023-12-23T16:18:59.370Z,100.00
2023-12-23T16:21:26.126Z,100.00
2023-12-23T16:23:52.880Z,100.00
2023-12-23T16:26:19.874Z,100.00
2023-12-23T16:28:47.150Z,100.00
2023-12-23T16:31:14.870Z,100.00
2023-12-23T16:33:42.354Z,100.00
2023-12-23T16:36:13.214Z,100.00
2023-12-23T16:38:43.141Z,100.00
2023-12-23T16:41:13.611Z,100.00
2023-12-23T16:43:41.063Z,100.00
2023-12-23T16:46:09.277Z,100.00
2023-12-23T16:48:36.320Z,100.00
2023-12-23T16:51:03.299Z,100.00
2023-12-23T16:53:30.050Z,100.00
2023-12-23T16:55:56.947Z,100.00
2023-12-23T16:58:23.827Z,100.00
2023-12-23T17:00:50.532Z,100.00
2023-12-23T17:03:18.264Z,100.00
2023-12-23T17:05:45.657Z,100.00
2023-12-23T17:08:12.620Z,100.00
2023-12-23T17:10:39.306Z,100.00
2023-12-23T17:13:07.300Z,100.00
2023-12-23T17:15:33.997Z,100.00
2023-12-23T17:18:01.141Z,100.00
2023-12-23T17:20:28.130Z,100.00
2023-12-23T17:22:55.889Z,100.00
2023-12-23T17:25:22.914Z,100.00
2023-12-23T17:27:49.838Z,100.00
2023-12-23T17:30:16.784Z,100.00
2023-12-23T17:32:43.811Z,100.00
2023-12-23T17:35:10.991Z,100.00
2023-12-23T17:37:37.838Z,100.00
2023-12-23T17:40:05.112Z,100.00
2023-12-23T17:42:31.941Z,100.00
2023-12-23T17:44:59.727Z,100.00
2023-12-23T17:47:45.153Z,100.00
2023-12-23T17:50:14.250Z,100.00
2023-12-23T17:52:40.969Z,100.00
2023-12-23T17:55:26.057Z,100.00
2023-12-23T17:57:52.853Z,100.00
2023-12-23T18:00:21.618Z,100.00
2023-12-23T18:02:48.324Z,100.00
2023-12-23T18:05:17.952Z,100.00
2023-12-23T18:07:44.778Z,100.00
2023-12-23T18:10:11.630Z,100.00
2023-12-23T18:12:38.467Z,100.00
2023-12-23T18:15:05.525Z,100.00
2023-12-23T18:17:32.435Z,100.00
2023-12-23T18:19:59.223Z,100.00
2023-12-23T18:22:26.297Z,100.00
2023-12-23T18:24:52.933Z,100.00
2023-12-23T18:27:19.773Z,100.00
2023-12-23T18:29:46.461Z,100.00
2023-12-23T18:32:14.407Z,100.00
2023-12-23T18:34:41.443Z,99.92
2023-12-23T18:37:08.856Z,99.52
2023-12-23T18:39:36.220Z,99.23
2023-12-23T18:42:03.082Z,99.20
2023-12-23T18:44:29.940Z,99.10
2023-12-23T18:46:56.726Z,98.73
2023-12-23T18:49:23.732Z,97.77
2023-12-23T18:51:51.197Z,98.14
2023-12-23T18:54:18.255Z,97.82
2023-12-23T18:56:45.103Z,97.62
2023-12-23T18:59:12.703Z,96.92
2023-12-23T19:01:39.626Z,96.39
2023-12-23T19:04:08.237Z,96.37
2023-12-23T19:06:37.833Z,95.96
2023-12-23T19:09:04.791Z,95.77
2023-12-23T19:11:31.503Z,95.95
2023-12-23T19:13:58.557Z,95.43
2023-12-23T19:16:25.270Z,95.42
2023-12-23T19:18:52.075Z,94.89
2023-12-23T19:21:19.846Z,94.94
2023-12-23T19:23:46.630Z,94.96
2023-12-23T19:26:13.368Z,94.63
2023-12-23T19:28:40.092Z,94.63
2023-12-23T19:31:06.824Z,94.58
2023-12-23T19:33:34.870Z,94.02
2023-12-23T19:36:01.750Z,94.12
2023-12-23T19:38:28.607Z,93.73
2023-12-23T19:40:55.630Z,93.59
2023-12-23T19:43:24.968Z,94.02
2023-12-23T19:45:52.366Z,92.99
2023-12-23T19:48:19.219Z,92.76
2023-12-23T19:50:46.154Z,93.00
2023-12-23T19:53:12.999Z,92.68
2023-12-23T19:55:40.589Z,92.54
2023-12-23T19:58:07.359Z,92.83
2023-12-23T20:00:33.976Z,92.54
2023-12-23T20:03:19.072Z,92.38
2023-12-23T20:05:45.921Z,92.07
2023-12-23T20:08:12.824Z,91.97
2023-12-23T20:10:40.181Z,91.43
2023-12-23T20:13:06.858Z,91.16
2023-12-23T20:15:34.070Z,91.48
2023-12-23T20:18:02.068Z,91.24
2023-12-23T20:20:29.093Z,90.96
2023-12-23T20:22:56.079Z,91.46
2023-12-23T20:25:23.012Z,91.67
2023-12-23T20:27:49.703Z,91.20
2023-12-23T20:30:16.491Z,90.93
2023-12-23T20:32:43.240Z,90.72
2023-12-23T20:35:10.092Z,90.75
2023-12-23T20:37:36.774Z,90.53
2023-12-23T20:40:23.762Z,90.56
2023-12-23T20:42:51.083Z,90.17
2023-12-23T20:45:17.945Z,90.23
2023-12-23T20:47:44.800Z,90.68
2023-12-23T20:50:11.608Z,90.31
2023-12-23T20:52:38.427Z,90.16
2023-12-23T20:55:05.171Z,90.35
2023-12-23T20:57:32.239Z,90.06
2023-12-23T20:59:59.070Z,89.86
2023-12-23T21:02:25.900Z,89.88
2023-12-23T21:04:52.654Z,88.91
2023-12-23T21:07:39.714Z,89.30
2023-12-23T21:10:09.526Z,89.46
2023-12-23T21:12:36.527Z,89.11
2023-12-23T21:15:03.541Z,88.78
2023-12-23T21:17:30.607Z,89.14
2023-12-23T21:19:57.607Z,88.48
2023-12-23T21:22:42.567Z,88.81
2023-12-23T21:25:09.224Z,88.63
2023-12-23T21:27:35.919Z,88.59
2023-12-23T21:30:02.692Z,88.61
2023-12-23T21:32:29.425Z,88.63
2023-12-23T21:34:56.234Z,88.51
2023-12-23T21:37:22.934Z,88.25
2023-12-23T21:39:49.823Z,88.16
2023-12-23T21:42:16.554Z,88.48
2023-12-23T21:44:43.791Z,88.06
2023-12-23T21:47:10.538Z,88.38
2023-12-23T21:49:37.512Z,87.87
2023-12-23T21:52:04.516Z,88.36
2023-12-23T21:54:31.223Z,88.17
2023-12-23T21:56:57.855Z,87.67
2023-12-23T21:59:25.700Z,87.49
2023-12-23T22:01:52.617Z,87.75
2023-12-23T22:04:19.307Z,87.55
2023-12-23T22:06:46.874Z,87.70
2023-12-23T22:09:14.010Z,87.45
2023-12-23T22:11:40.986Z,87.69
2023-12-23T22:14:07.839Z,87.62
2023-12-23T22:16:34.647Z,87.23
2023-12-23T22:19:01.359Z,87.39
2023-12-23T22:21:28.143Z,87.29
2023-12-23T22:23:54.894Z,86.94
2023-12-23T22:26:40.339Z,87.23
2023-12-23T22:29:07.033Z,87.16
2023-12-23T22:31:33.715Z,86.92
2023-12-23T22:34:04.507Z,86.49
2023-12-23T22:36:31.875Z,85.59
2023-12-23T22:38:58.548Z,86.17
2023-12-23T22:41:25.337Z,86.30
2023-12-23T22:43:52.070Z,86.36
2023-12-23T22:46:19.185Z,86.54
2023-12-23T22:48:46.080Z,86.46
2023-12-23T22:51:12.854Z,86.09
2023-12-23T22:53:39.638Z,86.26
2023-12-23T22:56:07.441Z,86.80
2023-12-23T22:58:35.238Z,86.21
2023-12-23T23:01:02.128Z,85.75
2023-12-23T23:03:28.951Z,86.37
2023-12-23T23:05:56.000Z,86.34
2023-12-23T23:08:22.781Z,85.96
2023-12-23T23:10:49.631Z,86.25
2023-12-23T23:13:17.143Z,86.32
2023-12-23T23:15:43.962Z,85.71
2023-12-23T23:18:10.874Z,85.92
2023-12-23T23:20:37.736Z,85.59
2023-12-23T23:23:04.718Z,85.88
2023-12-23T23:25:31.514Z,85.36
2023-12-23T23:27:58.365Z,85.69
2023-12-23T23:30:25.416Z,85.21
2023-12-23T23:32:52.412Z,85.00
2023-12-23T23:35:19.452Z,84.95
2023-12-23T23:37:46.155Z,84.85
2023-12-23T23:40:13.203Z,84.59
2023-12-23T23:42:39.885Z,84.43
2023-12-23T23:45:07.823Z,84.83
2023-12-23T23:47:34.804Z,85.20
2023-12-23T23:50:04.936Z,84.88
2023-12-23T23:52:33.841Z,85.63
2023-12-23T23:55:00.606Z,85.08
2023-12-23T23:57:27.927Z,85.33
2023-12-23T23:59:54.732Z,85.23
